Marianna, Florida
Current Conditions -  °F | °C
As of 4:53 AM on Monday 22 Dec 2014 (Local Time) from KMAI Reporting Station
Moderate Rain Moderate Rain  
Wind Chill: 52°   Ceiling: 200
Heat Index: 52°   Visibility: 5mi
Dew Point: 52°   Wind: 8mph
Humidity: 100%   Direction: 60°ENE
Pressure: 29.96"   Gusts: NA
Location:  30.78°N, 85.23°W
Report Text: KMAI 221053Z AUTO 06007KT 5SM RA BR OVC002 11/11 A2996 RMK AO2 RAB30 SLP145 P0003 T01110111 $
Loading
Personal Weather Stations






























Interactive Weather Map New forecast layout! Learn more

10-Day Weather Forecast

Advertisements
Track Severe Weather on mobile